createdAt,value
2019-03-31T00:00:11.098Z,0.00
2019-03-31T00:01:11.068Z,0.00
2019-03-31T00:02:11.041Z,0.00
2019-03-31T00:03:11.003Z,0.00
2019-03-31T00:04:10.940Z,0.00
2019-03-31T00:05:10.939Z,0.00
2019-03-31T00:06:10.885Z,0.00
2019-03-31T00:07:10.845Z,0.00
2019-03-31T00:08:10.812Z,0.00
2019-03-31T00:09:10.754Z,0.00
2019-03-31T00:10:10.775Z,0.00
2019-03-31T00:11:10.717Z,0.00
2019-03-31T00:12:10.650Z,0.00
2019-03-31T00:13:10.605Z,0.00
2019-03-31T00:14:10.547Z,0.00
2019-03-31T00:15:10.538Z,0.00
2019-03-31T00:16:10.485Z,0.00
2019-03-31T00:17:10.441Z,0.00
2019-03-31T00:18:10.403Z,0.00
2019-03-31T00:19:10.426Z,0.00
2019-03-31T00:20:10.349Z,0.00
2019-03-31T00:21:10.267Z,0.00
2019-03-31T00:22:10.265Z,0.00
2019-03-31T00:23:10.201Z,0.00
2019-03-31T00:24:10.171Z,0.00
2019-03-31T00:25:10.138Z,0.00
2019-03-31T00:26:10.067Z,0.00
2019-03-31T00:27:10.039Z,0.00
2019-03-31T00:28:10.029Z,0.00
2019-03-31T00:29:09.993Z,0.00
2019-03-31T00:30:10.033Z,0.00
2019-03-31T00:31:21.585Z,0.00
2019-03-31T00:32:09.842Z,0.00
2019-03-31T00:33:09.808Z,0.00
2019-03-31T00:34:09.775Z,0.00
2019-03-31T00:35:09.723Z,0.00
2019-03-31T00:36:09.724Z,0.00
2019-03-31T00:37:09.695Z,0.00
2019-03-31T00:38:09.631Z,0.00
2019-03-31T00:39:09.575Z,0.00
2019-03-31T00:40:09.523Z,0.00
2019-03-31T00:41:09.505Z,0.00
2019-03-31T00:42:09.437Z,0.00
2019-03-31T00:43:09.415Z,0.00
2019-03-31T00:44:09.379Z,0.00
2019-03-31T00:45:09.323Z,0.00
2019-03-31T00:46:09.288Z,0.00
2019-03-31T00:47:09.274Z,0.00
2019-03-31T00:48:09.232Z,0.00
2019-03-31T00:49:09.304Z,0.00
2019-03-31T00:50:09.115Z,0.00
2019-03-31T00:51:09.089Z,0.00
2019-03-31T00:52:09.066Z,0.00
2019-03-31T00:53:09.111Z,0.00
2019-03-31T00:54:09.001Z,0.00
2019-03-31T00:55:08.918Z,0.00
2019-03-31T00:56:08.875Z,0.00
2019-03-31T00:57:08.827Z,0.00
2019-03-31T00:58:08.805Z,0.00
2019-03-31T00:59:08.771Z,0.00
2019-03-31T01:00:08.712Z,0.00
2019-03-31T01:01:08.750Z,0.00
2019-03-31T01:02:08.646Z,0.00
2019-03-31T01:03:08.616Z,0.00
2019-03-31T01:04:08.589Z,0.00
2019-03-31T01:05:08.550Z,0.00
2019-03-31T01:06:08.507Z,0.00
2019-03-31T01:07:08.442Z,0.00
2019-03-31T01:08:08.428Z,0.00
2019-03-31T01:09:08.354Z,0.00
2019-03-31T01:10:08.309Z,0.00
2019-03-31T01:11:08.283Z,0.00
2019-03-31T01:12:08.252Z,0.00
2019-03-31T01:13:08.216Z,0.00
2019-03-31T01:14:08.871Z,0.00
2019-03-31T01:15:08.114Z,0.00
2019-03-31T01:16:08.065Z,0.00
2019-03-31T01:17:08.045Z,0.00
2019-03-31T01:18:08.004Z,0.00
2019-03-31T01:19:07.977Z,0.00
2019-03-31T01:20:07.921Z,0.00
2019-03-31T01:21:07.877Z,0.00
2019-03-31T01:22:07.842Z,0.00
2019-03-31T01:23:07.794Z,0.00
2019-03-31T01:24:07.747Z,0.00
2019-03-31T01:25:07.739Z,0.00
2019-03-31T01:26:07.685Z,0.00
2019-03-31T01:27:07.625Z,0.00
2019-03-31T01:28:07.594Z,0.00
2019-03-31T01:29:07.548Z,0.00
2019-03-31T01:30:07.539Z,0.00
2019-03-31T01:31:07.463Z,0.00
2019-03-31T01:32:07.442Z,0.00
2019-03-31T01:33:07.378Z,0.00
2019-03-31T01:34:07.375Z,0.00
2019-03-31T01:35:07.312Z,0.00
2019-03-31T01:36:07.265Z,0.00
2019-03-31T01:37:07.230Z,0.00
2019-03-31T01:38:07.885Z,0.00
2019-03-31T01:39:07.151Z,0.00
2019-03-31T01:40:07.127Z,0.00
2019-03-31T01:41:07.070Z,0.00
2019-03-31T01:42:07.050Z,0.00
2019-03-31T01:43:06.977Z,0.00
2019-03-31T01:44:06.950Z,0.00
2019-03-31T01:45:06.932Z,0.00
2019-03-31T01:46:06.899Z,0.00
2019-03-31T01:47:06.838Z,0.00
2019-03-31T01:48:06.800Z,0.00
2019-03-31T01:49:06.790Z,0.00
2019-03-31T01:50:06.733Z,0.00
2019-03-31T01:51:06.695Z,0.00
2019-03-31T01:52:06.636Z,0.00
2019-03-31T01:53:06.595Z,0.00
2019-03-31T01:54:06.541Z,0.00
2019-03-31T01:55:06.495Z,0.00
2019-03-31T01:56:06.501Z,0.00
2019-03-31T01:57:06.415Z,0.00
2019-03-31T01:58:06.575Z,0.00
2019-03-31T01:59:06.363Z,0.00
2019-03-31T02:00:06.312Z,0.00
2019-03-31T02:01:06.891Z,0.00
2019-03-31T02:02:06.228Z,0.00
2019-03-31T02:03:06.233Z,0.00
2019-03-31T02:04:06.156Z,0.00
2019-03-31T02:05:06.100Z,0.00
2019-03-31T02:06:06.088Z,0.00
2019-03-31T02:07:06.024Z,0.00
2019-03-31T02:08:05.978Z,0.00
2019-03-31T02:09:05.949Z,0.00
2019-03-31T02:10:05.892Z,0.00
2019-03-31T02:11:05.855Z,0.00
2019-03-31T02:12:05.851Z,0.00
2019-03-31T02:13:05.792Z,0.00
2019-03-31T02:14:05.789Z,0.00
2019-03-31T02:15:05.733Z,0.00
2019-03-31T02:16:05.663Z,0.00
2019-03-31T02:17:05.625Z,0.00
2019-03-31T02:18:05.587Z,0.00
2019-03-31T02:19:05.547Z,0.00
2019-03-31T02:20:05.512Z,0.00
2019-03-31T02:21:05.464Z,0.00
2019-03-31T02:22:05.431Z,0.00
2019-03-31T02:23:05.415Z,0.00
2019-03-31T02:24:05.348Z,0.00
2019-03-31T02:25:05.317Z,0.00
2019-03-31T02:26:05.257Z,0.00
2019-03-31T02:27:05.218Z,0.00
2019-03-31T02:28:05.213Z,0.00
2019-03-31T02:29:05.137Z,0.00
2019-03-31T02:30:05.111Z,0.00
2019-03-31T02:31:05.051Z,0.00
2019-03-31T02:32:22.093Z,0.00
2019-03-31T02:33:05.024Z,0.00
2019-03-31T02:34:04.951Z,0.00
2019-03-31T02:35:04.911Z,0.00
2019-03-31T02:36:04.903Z,0.00
2019-03-31T02:37:04.820Z,0.00
2019-03-31T02:38:04.786Z,0.00
2019-03-31T02:39:04.743Z,0.00
2019-03-31T02:40:04.721Z,0.00
2019-03-31T02:41:04.657Z,0.00
2019-03-31T02:42:04.604Z,0.00
2019-03-31T02:43:04.607Z,0.00
2019-03-31T02:44:04.532Z,0.00
2019-03-31T02:45:04.494Z,0.00
2019-03-31T02:46:04.444Z,0.00
2019-03-31T02:47:04.423Z,0.00
2019-03-31T02:48:04.387Z,0.00
2019-03-31T02:49:04.360Z,0.00
2019-03-31T02:50:04.302Z,0.00
2019-03-31T02:51:04.269Z,0.00
2019-03-31T02:52:04.206Z,0.00
2019-03-31T02:53:04.180Z,0.00
2019-03-31T02:54:04.193Z,0.00
2019-03-31T02:55:04.087Z,0.00
2019-03-31T02:56:04.059Z,0.00
2019-03-31T02:57:04.107Z,0.00
2019-03-31T02:58:03.994Z,0.00
2019-03-31T02:59:03.952Z,0.00
2019-03-31T03:00:03.919Z,0.00
2019-03-31T03:01:03.862Z,0.00
2019-03-31T03:02:03.820Z,0.00
2019-03-31T03:03:03.797Z,0.00
2019-03-31T03:04:07.733Z,0.00
2019-03-31T03:05:17.699Z,0.00
2019-03-31T03:06:03.729Z,0.00
2019-03-31T03:07:03.619Z,0.00
2019-03-31T03:08:03.563Z,0.00
2019-03-31T03:09:03.528Z,0.00
2019-03-31T03:10:03.473Z,0.00
2019-03-31T03:11:03.454Z,0.00
2019-03-31T03:12:03.411Z,0.00
2019-03-31T03:13:03.364Z,0.00
2019-03-31T03:14:03.355Z,0.00
2019-03-31T03:15:03.287Z,0.00
2019-03-31T03:16:03.341Z,0.00
2019-03-31T03:17:03.244Z,0.00
2019-03-31T03:18:03.166Z,0.00
2019-03-31T03:19:03.152Z,0.00
2019-03-31T03:20:03.067Z,0.00
2019-03-31T03:21:03.046Z,0.00
2019-03-31T03:22:02.998Z,0.00
2019-03-31T03:23:02.989Z,0.00
2019-03-31T03:24:02.955Z,0.00
2019-03-31T03:25:02.929Z,0.00
2019-03-31T03:26:02.859Z,0.00
2019-03-31T03:27:03.405Z,0.00
2019-03-31T03:28:02.775Z,0.00
2019-03-31T03:29:02.698Z,0.00
2019-03-31T03:30:02.710Z,0.00
2019-03-31T03:31:03.009Z,0.00
2019-03-31T03:32:02.640Z,0.00
2019-03-31T03:33:14.964Z,0.00
2019-03-31T03:34:02.504Z,0.00
2019-03-31T03:35:02.471Z,0.00
2019-03-31T03:36:02.456Z,0.00
2019-03-31T03:37:02.384Z,0.00
2019-03-31T03:38:02.347Z,0.00
2019-03-31T03:39:02.293Z,0.00
2019-03-31T03:40:02.289Z,0.00
2019-03-31T03:41:02.226Z,0.00
2019-03-31T03:42:02.256Z,0.00
2019-03-31T03:43:02.176Z,0.00
2019-03-31T03:44:02.807Z,0.00
2019-03-31T03:45:02.129Z,0.00
2019-03-31T03:46:02.159Z,0.00
2019-03-31T03:47:02.909Z,0.00
2019-03-31T03:48:02.912Z,0.00
2019-03-31T03:49:01.956Z,0.00
2019-03-31T03:50:01.881Z,0.00
2019-03-31T03:51:01.812Z,0.00
2019-03-31T03:52:01.756Z,0.00
2019-03-31T03:53:01.736Z,0.00
2019-03-31T03:54:01.738Z,0.00
2019-03-31T03:55:01.645Z,0.00
2019-03-31T03:56:01.653Z,0.00
2019-03-31T03:57:01.594Z,0.00
2019-03-31T03:58:01.518Z,0.00
2019-03-31T03:59:01.468Z,0.00
2019-03-31T04:00:01.461Z,0.00
2019-03-31T04:01:01.389Z,0.00
2019-03-31T04:02:01.407Z,0.00
2019-03-31T04:03:01.307Z,0.00
2019-03-31T04:04:01.303Z,0.00
2019-03-31T04:05:01.264Z,0.00
2019-03-31T04:06:01.208Z,0.00
2019-03-31T04:07:01.167Z,0.00
2019-03-31T04:08:01.147Z,0.00
2019-03-31T04:09:01.158Z,0.00
2019-03-31T04:10:01.068Z,0.00
2019-03-31T04:11:01.011Z,0.00
2019-03-31T04:12:00.960Z,0.00
2019-03-31T04:13:00.927Z,0.00
2019-03-31T04:14:00.865Z,0.00
2019-03-31T04:15:00.836Z,0.00
2019-03-31T04:16:00.817Z,0.00
2019-03-31T04:17:00.751Z,0.00
2019-03-31T04:18:00.711Z,0.00
2019-03-31T04:19:01.417Z,0.00
2019-03-31T04:20:00.653Z,0.00
2019-03-31T04:21:00.639Z,0.00
2019-03-31T04:22:00.600Z,0.00
2019-03-31T04:23:00.500Z,0.00
2019-03-31T04:24:00.474Z,0.00
2019-03-31T04:25:00.724Z,0.00
2019-03-31T04:26:00.440Z,0.00
2019-03-31T04:27:00.325Z,0.00
2019-03-31T04:28:00.287Z,0.00
2019-03-31T04:29:00.245Z,0.00
2019-03-31T04:30:00.753Z,0.00
2019-03-31T04:31:00.158Z,0.00
2019-03-31T04:32:00.130Z,0.00
2019-03-31T04:33:00.116Z,0.00
2019-03-31T04:34:00.071Z,0.00
2019-03-31T04:35:00.004Z,0.00
2019-03-31T04:35:59.952Z,0.00
2019-03-31T04:36:59.920Z,0.00
2019-03-31T04:37:59.909Z,0.00
2019-03-31T04:39:00.476Z,0.00
2019-03-31T04:39:59.796Z,5.63
2019-03-31T04:40:59.829Z,5.63
2019-03-31T04:41:59.731Z,5.63
2019-03-31T04:42:59.670Z,5.63
2019-03-31T04:43:59.624Z,5.63
2019-03-31T04:44:59.598Z,11.25
2019-03-31T04:45:59.543Z,11.25
2019-03-31T04:46:59.538Z,11.25
2019-03-31T04:47:59.479Z,11.25
2019-03-31T04:48:59.489Z,16.88
2019-03-31T04:49:59.386Z,16.88
2019-03-31T04:50:59.374Z,16.88
2019-03-31T04:51:59.293Z,22.50
2019-03-31T04:52:59.253Z,22.50
2019-03-31T04:53:59.225Z,28.13
2019-03-31T04:54:59.176Z,28.13
2019-03-31T04:55:59.147Z,28.13
2019-03-31T04:56:59.094Z,33.75
2019-03-31T04:57:59.154Z,33.75
2019-03-31T04:58:59.003Z,39.38
2019-03-31T04:59:58.961Z,39.38
2019-03-31T05:00:58.915Z,45.00
2019-03-31T05:01:58.898Z,50.63
2019-03-31T05:02:58.865Z,50.63
2019-03-31T05:04:05.011Z,56.25
2019-03-31T05:04:58.760Z,56.25
2019-03-31T05:05:58.757Z,61.88
2019-03-31T05:06:58.687Z,67.50
2019-03-31T05:07:58.645Z,73.13
2019-03-31T05:08:58.625Z,73.13
2019-03-31T05:09:58.606Z,78.75
2019-03-31T05:10:58.530Z,84.38
2019-03-31T05:11:58.477Z,90.00
2019-03-31T05:12:58.462Z,90.00
2019-03-31T05:13:58.385Z,95.63
2019-03-31T05:14:58.405Z,101.25
2019-03-31T05:15:58.309Z,106.88
2019-03-31T05:16:58.337Z,106.88
2019-03-31T05:17:58.223Z,112.50
2019-03-31T05:18:58.202Z,118.13
2019-03-31T05:19:58.153Z,123.75
2019-03-31T05:20:58.144Z,129.38
2019-03-31T05:21:58.066Z,129.38
2019-03-31T05:22:58.016Z,135.00
2019-03-31T05:23:57.977Z,140.63
2019-03-31T05:24:57.960Z,146.25
2019-03-31T05:25:57.912Z,151.88
2019-03-31T05:26:57.854Z,157.50
2019-03-31T05:27:57.810Z,163.13
2019-03-31T05:28:57.765Z,168.75
2019-03-31T05:29:57.731Z,168.75
2019-03-31T05:30:57.729Z,180.00
2019-03-31T05:31:57.643Z,185.63
2019-03-31T05:32:57.612Z,191.25
2019-03-31T05:33:57.565Z,196.88
2019-03-31T05:34:57.528Z,202.50
2019-03-31T05:35:57.489Z,208.13
2019-03-31T05:36:57.444Z,213.75
2019-03-31T05:37:57.396Z,225.00
2019-03-31T05:38:57.357Z,225.00
2019-03-31T05:39:57.330Z,230.63
2019-03-31T05:40:57.282Z,236.25
2019-03-31T05:41:57.268Z,241.88
2019-03-31T05:42:57.211Z,247.50
2019-03-31T05:44:05.536Z,253.13
2019-03-31T05:44:57.163Z,258.75
2019-03-31T05:45:57.072Z,264.38
2019-03-31T05:46:57.089Z,270.00
2019-03-31T05:47:57.001Z,275.63
2019-03-31T05:48:56.970Z,286.88
2019-03-31T05:49:56.898Z,292.50
2019-03-31T05:50:56.915Z,303.75
2019-03-31T05:51:56.834Z,326.25
2019-03-31T05:52:56.808Z,348.75
2019-03-31T05:53:56.790Z,348.75
2019-03-31T05:54:56.800Z,331.88
2019-03-31T05:55:56.730Z,331.88
2019-03-31T05:56:56.674Z,348.75
2019-03-31T05:57:56.619Z,371.25
2019-03-31T05:58:56.524Z,348.75
2019-03-31T05:59:56.546Z,354.38
2019-03-31T06:00:56.473Z,360.00
2019-03-31T06:01:56.464Z,354.38
2019-03-31T06:02:56.375Z,354.38
2019-03-31T06:03:56.357Z,365.63
2019-03-31T06:04:56.288Z,371.25
2019-03-31T06:05:56.284Z,376.88
2019-03-31T06:06:56.216Z,382.50
2019-03-31T06:07:56.206Z,410.63
2019-03-31T06:08:56.143Z,444.38
2019-03-31T06:09:56.084Z,455.63
2019-03-31T06:10:56.097Z,450.00
2019-03-31T06:11:56.037Z,438.75
2019-03-31T06:12:55.986Z,433.13
2019-03-31T06:13:55.939Z,433.13
2019-03-31T06:14:55.920Z,438.75
2019-03-31T06:15:55.860Z,461.25
2019-03-31T06:16:55.810Z,466.88
2019-03-31T06:17:55.855Z,455.63
2019-03-31T06:18:55.786Z,466.88
2019-03-31T06:19:55.704Z,472.50
2019-03-31T06:20:55.678Z,466.88
2019-03-31T06:21:55.718Z,472.50
2019-03-31T06:22:55.594Z,483.75
2019-03-31T06:23:55.558Z,500.63
2019-03-31T06:24:55.496Z,500.63
2019-03-31T06:25:55.480Z,495.00
2019-03-31T06:26:55.587Z,500.63
2019-03-31T06:27:55.390Z,523.13
2019-03-31T06:28:55.365Z,545.63
2019-03-31T06:29:55.496Z,590.63
2019-03-31T06:30:55.269Z,720.00
2019-03-31T06:31:55.236Z,691.88
2019-03-31T06:32:55.549Z,596.25
2019-03-31T06:33:55.163Z,568.13
2019-03-31T06:34:55.093Z,607.50
2019-03-31T06:35:55.105Z,635.63
2019-03-31T06:36:55.046Z,630.00
2019-03-31T06:37:54.996Z,607.50
2019-03-31T06:38:54.974Z,585.00
2019-03-31T06:39:54.936Z,613.13
2019-03-31T06:40:54.878Z,652.50
2019-03-31T06:41:54.826Z,635.63
2019-03-31T06:42:54.819Z,646.88
2019-03-31T06:43:54.766Z,720.00
2019-03-31T06:44:54.722Z,843.75
2019-03-31T06:45:54.730Z,860.63
2019-03-31T06:46:54.664Z,765.00
2019-03-31T06:47:54.628Z,765.00
2019-03-31T06:48:54.575Z,810.00
2019-03-31T06:49:54.622Z,871.88
2019-03-31T06:50:54.514Z,900.00
2019-03-31T06:51:54.503Z,883.13
2019-03-31T06:52:54.443Z,928.13
2019-03-31T06:53:54.386Z,1012.50
2019-03-31T06:54:54.346Z,1141.88
2019-03-31T06:55:54.329Z,1254.38
2019-03-31T06:56:54.278Z,1231.88
2019-03-31T06:57:54.231Z,1164.38
2019-03-31T06:58:54.198Z,1186.88
2019-03-31T06:59:54.167Z,1260.00
2019-03-31T07:00:54.137Z,1271.25
2019-03-31T07:01:54.157Z,1276.88
2019-03-31T07:02:54.065Z,1293.75
2019-03-31T07:03:54.043Z,1321.88
2019-03-31T07:05:00.818Z,1333.13
2019-03-31T07:05:53.970Z,1327.50
2019-03-31T07:06:53.962Z,1327.50
2019-03-31T07:07:53.919Z,1361.25
2019-03-31T07:08:53.864Z,1344.38
2019-03-31T07:09:53.855Z,1316.25
2019-03-31T07:10:53.832Z,1299.38
2019-03-31T07:11:53.780Z,1366.88
2019-03-31T07:12:53.739Z,1355.63
2019-03-31T07:13:53.705Z,1338.75
2019-03-31T07:14:53.694Z,1406.25
2019-03-31T07:15:53.647Z,1468.13
2019-03-31T07:16:53.641Z,1462.50
2019-03-31T07:17:53.632Z,1406.25
2019-03-31T07:18:53.566Z,1445.63
2019-03-31T07:19:53.524Z,1445.63
2019-03-31T07:20:53.528Z,1411.88
2019-03-31T07:21:53.548Z,1440.00
2019-03-31T07:22:53.461Z,1558.13
2019-03-31T07:23:53.436Z,1518.75
2019-03-31T07:24:53.422Z,1513.13
2019-03-31T07:25:53.393Z,1552.50
2019-03-31T07:26:53.360Z,1496.25
2019-03-31T07:27:53.327Z,1608.75
2019-03-31T07:28:55.077Z,1608.75
2019-03-31T07:29:53.272Z,1558.13
2019-03-31T07:30:53.267Z,1541.25
2019-03-31T07:31:53.310Z,1597.50
2019-03-31T07:32:53.178Z,1631.25
2019-03-31T07:33:53.177Z,1546.88
2019-03-31T07:34:53.117Z,1535.63
2019-03-31T07:35:53.098Z,1569.38
2019-03-31T07:36:53.074Z,1608.75
2019-03-31T07:37:53.043Z,1653.75
2019-03-31T07:38:53.192Z,1698.75
2019-03-31T07:39:53.032Z,1665.00
2019-03-31T07:40:53.344Z,1580.63
2019-03-31T07:41:53.268Z,1636.88
2019-03-31T07:42:53.137Z,1721.25
2019-03-31T07:43:52.911Z,1766.25
2019-03-31T07:44:52.920Z,1805.63
2019-03-31T07:45:55.685Z,1867.50
2019-03-31T07:46:52.850Z,1839.38
2019-03-31T07:47:52.819Z,1726.88
2019-03-31T07:48:52.794Z,1681.88
2019-03-31T07:49:52.768Z,1794.38
2019-03-31T07:50:52.746Z,1839.38
2019-03-31T07:51:52.740Z,1895.63
2019-03-31T07:52:52.710Z,1811.25
2019-03-31T07:53:52.715Z,1760.63
2019-03-31T07:54:52.635Z,1794.38
2019-03-31T07:55:52.607Z,1743.75
2019-03-31T07:56:53.190Z,1777.50
2019-03-31T07:57:54.538Z,1766.25
2019-03-31T07:58:52.607Z,1867.50
2019-03-31T07:59:52.517Z,1884.38
2019-03-31T08:00:52.526Z,1715.63
2019-03-31T08:01:52.462Z,1693.13
2019-03-31T08:02:52.458Z,1755.00
2019-03-31T08:03:52.432Z,1906.88
2019-03-31T08:04:52.401Z,1670.63
2019-03-31T08:05:52.393Z,1715.63
2019-03-31T08:06:52.367Z,1946.25
2019-03-31T08:07:52.337Z,1912.50
2019-03-31T08:08:53.469Z,1861.88
2019-03-31T08:09:52.316Z,1603.13
2019-03-31T08:10:52.259Z,1681.88
2019-03-31T08:11:52.237Z,1845.00
2019-03-31T08:12:52.269Z,1884.38
2019-03-31T08:13:55.124Z,2041.88
2019-03-31T08:14:52.192Z,2064.38
2019-03-31T08:15:52.153Z,2115.00
2019-03-31T08:16:52.158Z,2030.63
2019-03-31T08:17:52.092Z,1963.13
2019-03-31T08:18:52.151Z,2041.88
2019-03-31T08:19:52.079Z,1996.88
2019-03-31T08:20:52.164Z,2126.25
2019-03-31T08:21:52.166Z,1985.63
2019-03-31T08:22:52.007Z,2103.75
2019-03-31T08:23:51.988Z,1940.63
2019-03-31T08:24:51.952Z,1608.75
2019-03-31T08:25:51.958Z,1732.50
2019-03-31T08:26:51.983Z,2103.75
2019-03-31T08:27:51.879Z,2295.00
2019-03-31T08:28:51.859Z,2120.63
2019-03-31T08:30:00.137Z,2098.13
2019-03-31T08:30:51.808Z,2008.13
2019-03-31T08:31:51.789Z,1996.88
2019-03-31T08:32:51.773Z,2041.88
2019-03-31T08:33:51.728Z,2199.38
2019-03-31T08:34:51.698Z,2328.75
2019-03-31T08:35:51.669Z,2165.63
2019-03-31T08:36:51.651Z,2328.75
2019-03-31T08:37:51.627Z,2480.63
2019-03-31T08:38:51.603Z,2261.25
2019-03-31T08:39:51.640Z,2193.75
2019-03-31T08:40:51.583Z,2503.13
2019-03-31T08:41:51.541Z,2413.13
2019-03-31T08:42:51.492Z,2396.25
2019-03-31T08:43:51.490Z,2655.00
2019-03-31T08:44:51.450Z,2649.38
2019-03-31T08:45:51.439Z,2390.63
2019-03-31T08:46:51.422Z,2469.38
2019-03-31T08:47:51.391Z,2469.38
2019-03-31T08:48:51.404Z,2520.00
2019-03-31T08:49:51.334Z,2030.63
2019-03-31T08:50:51.411Z,2058.75
2019-03-31T08:51:51.299Z,2255.63
2019-03-31T08:52:51.286Z,2424.38
2019-03-31T08:53:51.289Z,2047.50
2019-03-31T08:54:51.230Z,2553.75
2019-03-31T08:55:51.208Z,2818.13
2019-03-31T08:56:51.180Z,2885.63
2019-03-31T08:57:51.219Z,2773.13
2019-03-31T08:58:51.132Z,2880.00
2019-03-31T08:59:51.130Z,3020.63
2019-03-31T09:00:51.127Z,3200.63
2019-03-31T09:01:51.077Z,3043.13
2019-03-31T09:02:51.036Z,2981.25
2019-03-31T09:03:51.021Z,2863.13
2019-03-31T09:04:50.989Z,2823.75
2019-03-31T09:06:01.711Z,2767.50
2019-03-31T09:06:50.959Z,2880.00
2019-03-31T09:07:50.953Z,2728.13
2019-03-31T09:08:50.908Z,2604.38
2019-03-31T09:09:50.881Z,2283.75
2019-03-31T09:10:50.895Z,1980.00
2019-03-31T09:11:51.526Z,2880.00
2019-03-31T09:12:50.822Z,2913.75
2019-03-31T09:13:50.838Z,2148.75
2019-03-31T09:14:50.814Z,1856.25
2019-03-31T09:15:50.766Z,1923.75
2019-03-31T09:16:50.715Z,2261.25
2019-03-31T09:17:54.011Z,2981.25
2019-03-31T09:18:50.676Z,2655.00
2019-03-31T09:19:50.681Z,2604.38
2019-03-31T09:20:50.676Z,2863.13
2019-03-31T09:21:50.621Z,2520.00
2019-03-31T09:22:50.611Z,1828.13
2019-03-31T09:23:50.591Z,1755.00
2019-03-31T09:24:50.560Z,1800.00
2019-03-31T09:25:50.531Z,1991.25
2019-03-31T09:26:50.528Z,2514.38
2019-03-31T09:27:50.493Z,2716.88
2019-03-31T09:28:50.467Z,3352.50
2019-03-31T09:29:50.435Z,3684.38
2019-03-31T09:30:50.414Z,3543.75
2019-03-31T09:31:50.390Z,3493.13
2019-03-31T09:32:50.341Z,3268.13
2019-03-31T09:33:50.333Z,3380.63
2019-03-31T09:34:50.307Z,3003.75
2019-03-31T09:35:50.291Z,2970.00
2019-03-31T09:36:50.256Z,3560.63
2019-03-31T09:37:50.222Z,3110.63
2019-03-31T09:38:50.202Z,3352.50
2019-03-31T09:39:50.178Z,3510.00
2019-03-31T09:40:50.187Z,3616.88
2019-03-31T09:41:50.136Z,3369.38
2019-03-31T09:42:50.132Z,3594.38
2019-03-31T09:43:50.128Z,3577.50
2019-03-31T09:44:50.125Z,3026.25
2019-03-31T09:45:50.112Z,2790.00
2019-03-31T09:46:50.248Z,2773.13
2019-03-31T09:47:50.011Z,2958.75
2019-03-31T09:48:50.011Z,2458.13
2019-03-31T09:49:49.948Z,2182.50
2019-03-31T09:50:49.989Z,2221.88
2019-03-31T09:51:49.929Z,3296.25
2019-03-31T09:52:49.873Z,2508.75
2019-03-31T09:53:49.851Z,2711.25
2019-03-31T09:54:49.860Z,2362.50
2019-03-31T09:55:49.801Z,3031.88
2019-03-31T09:56:49.792Z,3296.25
2019-03-31T09:57:49.764Z,2525.63
2019-03-31T09:58:49.763Z,3138.75
2019-03-31T09:59:49.751Z,2694.38
2019-03-31T10:00:49.715Z,1901.25
2019-03-31T10:01:49.693Z,1794.38
2019-03-31T10:02:49.654Z,1670.63
2019-03-31T10:03:49.627Z,1586.25
2019-03-31T10:04:49.607Z,1569.38
2019-03-31T10:05:49.592Z,1721.25
2019-03-31T10:06:49.550Z,2868.75
2019-03-31T10:07:49.537Z,2542.50
2019-03-31T10:08:49.496Z,2761.88
2019-03-31T10:09:49.493Z,2576.25
2019-03-31T10:10:49.469Z,2840.63
2019-03-31T10:11:49.428Z,2424.38
2019-03-31T10:12:49.403Z,2345.63
2019-03-31T10:13:49.361Z,2919.38
2019-03-31T10:14:49.358Z,3656.25
2019-03-31T10:15:49.336Z,3645.00
2019-03-31T10:16:49.307Z,3465.00
2019-03-31T10:17:49.284Z,3183.75
2019-03-31T10:18:49.285Z,3465.00
2019-03-31T10:19:49.297Z,3352.50
2019-03-31T10:20:49.185Z,3071.25
2019-03-31T10:21:49.165Z,3105.00
2019-03-31T10:22:49.191Z,3211.88
2019-03-31T10:23:49.112Z,3403.13
2019-03-31T10:24:49.097Z,3515.63
2019-03-31T10:25:49.060Z,3037.50
2019-03-31T10:26:49.047Z,3594.38
2019-03-31T10:27:49.125Z,3262.50
2019-03-31T10:28:48.975Z,2716.88
2019-03-31T10:29:48.967Z,2520.00
2019-03-31T10:30:48.955Z,2970.00
2019-03-31T10:31:48.938Z,3015.00
2019-03-31T10:32:48.906Z,3476.25
2019-03-31T10:33:48.878Z,3031.88
2019-03-31T10:34:48.895Z,3172.50
2019-03-31T10:35:48.830Z,2345.63
2019-03-31T10:36:48.834Z,2295.00
2019-03-31T10:37:48.831Z,2649.38
2019-03-31T10:38:48.786Z,2739.38
2019-03-31T10:39:48.742Z,3273.75
2019-03-31T10:40:48.760Z,3408.75
2019-03-31T10:41:48.661Z,3020.63
2019-03-31T10:42:48.624Z,3172.50
2019-03-31T10:43:48.643Z,3397.50
2019-03-31T10:44:48.595Z,2700.00
2019-03-31T10:45:48.621Z,2373.75
2019-03-31T10:46:48.606Z,2199.38
2019-03-31T10:47:48.533Z,2317.50
2019-03-31T10:48:48.494Z,2379.38
2019-03-31T10:49:48.476Z,2458.13
2019-03-31T10:50:48.503Z,2795.63
2019-03-31T10:51:48.399Z,2458.13
2019-03-31T10:52:48.407Z,2458.13
2019-03-31T10:53:48.349Z,2317.50
2019-03-31T10:54:48.365Z,2193.75
2019-03-31T10:55:48.288Z,2165.63
2019-03-31T10:56:48.272Z,2328.75
2019-03-31T10:57:48.254Z,2514.38
2019-03-31T10:58:48.226Z,2182.50
2019-03-31T10:59:48.189Z,2497.50
2019-03-31T11:00:48.176Z,2615.63
2019-03-31T11:01:48.173Z,2295.00
2019-03-31T11:02:48.115Z,2227.50
2019-03-31T11:03:48.205Z,2430.00
2019-03-31T11:04:48.076Z,2970.00
2019-03-31T11:05:48.098Z,3076.88
2019-03-31T11:06:58.351Z,3223.13
2019-03-31T11:07:48.040Z,2621.25
2019-03-31T11:08:47.941Z,2806.88
2019-03-31T11:09:47.930Z,2700.00
2019-03-31T11:10:47.899Z,2373.75
2019-03-31T11:11:47.912Z,2531.25
2019-03-31T11:12:50.720Z,2840.63
2019-03-31T11:13:47.820Z,3386.25
2019-03-31T11:14:47.794Z,3408.75
2019-03-31T11:15:47.756Z,3285.00
2019-03-31T11:16:47.728Z,3532.50
2019-03-31T11:17:47.698Z,2846.25
2019-03-31T11:18:47.675Z,3515.63
2019-03-31T11:19:47.650Z,2941.88
2019-03-31T11:20:47.686Z,2694.38
2019-03-31T11:21:47.595Z,2615.63
2019-03-31T11:22:47.597Z,2711.25
2019-03-31T11:23:47.632Z,3161.25
2019-03-31T11:24:47.568Z,2542.50
2019-03-31T11:25:47.520Z,2306.25
2019-03-31T11:26:47.501Z,2334.38
2019-03-31T11:27:47.470Z,2311.88
2019-03-31T11:28:47.417Z,2317.50
2019-03-31T11:29:47.383Z,2716.88
2019-03-31T11:30:47.351Z,2851.88
2019-03-31T11:31:47.338Z,2593.13
2019-03-31T11:32:47.328Z,2396.25
2019-03-31T11:33:47.381Z,2508.75
2019-03-31T11:34:47.265Z,3088.13
2019-03-31T11:35:47.373Z,3172.50
2019-03-31T11:36:47.225Z,3622.50
2019-03-31T11:37:47.192Z,3678.75
2019-03-31T11:38:47.207Z,3791.25
2019-03-31T11:39:47.138Z,3628.13
2019-03-31T11:40:47.122Z,3808.13
2019-03-31T11:41:47.085Z,3701.25
2019-03-31T11:42:47.028Z,3701.25
2019-03-31T11:43:46.991Z,3763.13
2019-03-31T11:44:46.984Z,3757.50
2019-03-31T11:45:47.039Z,3751.88
2019-03-31T11:46:46.987Z,3706.88
2019-03-31T11:47:47.082Z,3521.25
2019-03-31T11:48:46.896Z,3318.75
2019-03-31T11:49:46.858Z,3262.50
2019-03-31T11:50:46.862Z,3363.75
2019-03-31T11:51:46.776Z,3616.88
2019-03-31T11:52:46.770Z,3521.25
2019-03-31T11:53:46.735Z,3431.25
2019-03-31T11:54:46.762Z,3678.75
2019-03-31T11:55:46.710Z,3571.88
2019-03-31T11:56:46.692Z,3020.63
2019-03-31T11:57:46.647Z,2767.50
2019-03-31T11:58:46.624Z,3307.50
2019-03-31T11:59:49.535Z,3116.25
2019-03-31T12:00:46.537Z,3003.75
2019-03-31T12:01:46.522Z,3133.13
2019-03-31T12:02:46.480Z,2570.63
2019-03-31T12:03:46.453Z,2497.50
2019-03-31T12:04:46.461Z,2486.25
2019-03-31T12:05:46.403Z,2334.38
2019-03-31T12:06:46.367Z,2227.50
2019-03-31T12:07:47.482Z,2300.63
2019-03-31T12:08:46.367Z,2486.25
2019-03-31T12:09:46.318Z,3166.88
2019-03-31T12:10:46.271Z,2390.63
2019-03-31T12:11:46.285Z,2851.88
2019-03-31T12:12:46.211Z,2593.13
2019-03-31T12:13:46.200Z,2683.13
2019-03-31T12:14:59.583Z,2823.75
2019-03-31T12:15:46.145Z,2649.38
2019-03-31T12:16:46.216Z,2615.63
2019-03-31T12:17:46.100Z,3352.50
2019-03-31T12:18:46.059Z,3150.00
2019-03-31T12:19:48.741Z,2733.75
2019-03-31T12:20:46.005Z,2829.38
2019-03-31T12:21:45.990Z,2711.25
2019-03-31T12:22:45.939Z,3757.50
2019-03-31T12:23:45.947Z,3414.38
2019-03-31T12:24:45.914Z,3645.00
2019-03-31T12:25:46.019Z,3639.38
2019-03-31T12:26:45.890Z,3706.88
2019-03-31T12:27:45.993Z,3735.00
2019-03-31T12:28:45.923Z,3195.00
2019-03-31T12:29:45.941Z,3150.00
2019-03-31T12:30:45.903Z,3560.63
2019-03-31T12:31:45.828Z,3532.50
2019-03-31T12:32:45.978Z,3223.13
2019-03-31T12:33:46.087Z,3262.50
2019-03-31T12:34:45.681Z,3200.63
2019-03-31T12:35:45.648Z,3313.13